createdAt,value
2022-11-28T00:00:23.617Z,25.37
2022-11-28T00:03:17.045Z,24.87
2022-11-28T00:05:50.664Z,24.23
2022-11-28T00:08:24.279Z,23.67
2022-11-28T00:10:57.694Z,25.17
2022-11-28T00:13:31.747Z,24.43
2022-11-28T00:16:08.158Z,25.90
2022-11-28T00:18:41.595Z,25.43
2022-11-28T00:21:16.213Z,23.20
2022-11-28T00:23:50.811Z,24.23
2022-11-28T00:26:26.023Z,25.10
2022-11-28T00:29:00.677Z,23.13
2022-11-28T00:31:43.026Z,23.97
2022-11-28T00:34:17.871Z,23.27
2022-11-28T00:36:51.689Z,21.83
2022-11-28T00:39:25.375Z,22.00
2022-11-28T00:41:58.520Z,22.67
2022-11-28T00:44:31.787Z,22.47
2022-11-28T00:47:05.158Z,23.80
2022-11-28T00:49:40.080Z,23.97
2022-11-28T00:52:13.937Z,22.13
2022-11-28T00:54:47.485Z,22.13
2022-11-28T00:57:21.093Z,22.53
2022-11-28T00:59:54.683Z,22.57
2022-11-28T01:02:28.033Z,25.27
2022-11-28T01:05:01.881Z,23.77
2022-11-28T01:07:36.146Z,23.67
2022-11-28T01:10:12.566Z,23.73
2022-11-28T01:12:46.317Z,26.50
2022-11-28T01:15:19.761Z,25.30
2022-11-28T01:17:52.687Z,24.57
2022-11-28T01:20:26.344Z,24.40
2022-11-28T01:22:59.779Z,23.87
2022-11-28T01:25:33.804Z,24.40
2022-11-28T01:28:07.801Z,25.13
2022-11-28T01:30:42.244Z,24.77
2022-11-28T01:33:15.589Z,24.10
2022-11-28T01:35:58.545Z,25.03
2022-11-28T01:38:31.986Z,24.60
2022-11-28T01:41:05.462Z,24.43
2022-11-28T01:43:58.237Z,23.60
2022-11-28T01:49:08.891Z,23.53
2022-11-28T01:51:43.792Z,24.33
2022-11-28T01:54:20.120Z,25.53
2022-11-28T01:56:57.999Z,24.80
2022-11-28T01:59:35.799Z,24.77
2022-11-28T02:02:15.166Z,23.73
2022-11-28T02:04:49.704Z,23.90
2022-11-28T02:07:23.153Z,24.27
2022-11-28T02:09:57.160Z,25.27
2022-11-28T02:12:46.134Z,24.00
2022-11-28T02:15:35.282Z,24.80
2022-11-28T02:18:24.247Z,24.13
2022-11-28T02:21:23.269Z,24.07
2022-11-28T02:24:22.233Z,23.47
2022-11-28T02:27:18.713Z,24.43
2022-11-28T02:30:08.095Z,23.90
2022-11-28T02:33:03.619Z,23.87
2022-11-28T02:35:45.239Z,22.60
2022-11-28T02:38:24.903Z,22.57
2022-11-28T02:41:04.320Z,23.00
2022-11-28T02:43:45.904Z,22.20
2022-11-28T02:46:27.476Z,21.80
2022-11-28T02:49:05.652Z,21.67
2022-11-28T02:51:43.714Z,21.93
2022-11-28T02:54:19.995Z,21.63
2022-11-28T02:56:54.422Z,22.00
2022-11-28T02:59:47.233Z,20.67
2022-11-28T03:05:03.653Z,19.73
2022-11-28T03:07:52.240Z,20.90
2022-11-28T03:10:31.101Z,20.47
2022-11-28T03:13:14.751Z,20.53
2022-11-28T03:15:58.215Z,20.47
2022-11-28T03:18:37.721Z,20.60
2022-11-28T03:21:19.922Z,21.23
2022-11-28T03:26:33.728Z,19.17
2022-11-28T03:29:15.919Z,20.93
2022-11-28T03:31:54.534Z,20.97
2022-11-28T03:34:32.758Z,21.40
2022-11-28T03:37:10.533Z,22.00
2022-11-28T03:39:50.138Z,21.03
2022-11-28T03:42:27.011Z,22.37
2022-11-28T03:45:08.394Z,22.30
2022-11-28T03:47:47.522Z,21.50
2022-11-28T03:50:26.873Z,22.07
2022-11-28T03:53:04.350Z,23.03
2022-11-28T03:55:42.877Z,21.60
2022-11-28T03:58:25.469Z,22.57
2022-11-28T04:01:10.239Z,22.70
2022-11-28T04:03:53.763Z,22.13
2022-11-28T04:06:31.489Z,22.63
2022-11-28T04:09:14.401Z,22.67
2022-11-28T04:11:53.316Z,24.63
2022-11-28T04:14:33.351Z,24.93
2022-11-28T04:17:11.806Z,24.33
2022-11-28T04:19:51.346Z,24.83
2022-11-28T04:22:30.610Z,25.00
2022-11-28T04:25:08.734Z,25.50
2022-11-28T04:27:47.519Z,25.43
2022-11-28T04:30:21.486Z,26.07
2022-11-28T04:33:02.234Z,26.03
2022-11-28T04:35:39.231Z,27.07
2022-11-28T04:38:14.847Z,26.67
2022-11-28T04:40:53.582Z,29.20
2022-11-28T04:43:31.901Z,27.07
2022-11-28T04:46:11.121Z,26.80
2022-11-28T04:48:45.570Z,28.50
2022-11-28T04:51:23.545Z,26.83
2022-11-28T04:54:07.997Z,28.37
2022-11-28T04:56:45.452Z,27.17
2022-11-28T04:59:20.042Z,29.40
2022-11-28T05:01:54.023Z,26.57
2022-11-28T05:04:27.518Z,26.57
2022-11-28T05:07:06.870Z,30.53
2022-11-28T05:09:40.739Z,27.87
2022-11-28T05:12:13.587Z,28.60
2022-11-28T05:14:47.238Z,29.77
2022-11-28T05:17:20.881Z,28.83
2022-11-28T05:19:54.124Z,28.10
2022-11-28T05:22:27.541Z,27.97
2022-11-28T05:25:01.082Z,28.33
2022-11-28T05:27:34.619Z,29.90
2022-11-28T05:30:13.471Z,27.07
2022-11-28T05:32:46.938Z,28.43
2022-11-28T05:35:20.740Z,29.37
2022-11-28T05:37:53.821Z,28.07
2022-11-28T05:40:26.976Z,28.70
2022-11-28T05:43:00.401Z,30.20
2022-11-28T05:45:34.339Z,28.87
2022-11-28T05:48:08.405Z,28.77
2022-11-28T05:50:44.159Z,29.50
2022-11-28T05:53:18.399Z,28.95
2022-11-28T05:55:51.992Z,29.37
2022-11-28T05:58:25.190Z,26.93
2022-11-28T06:00:58.782Z,27.07
2022-11-28T06:03:32.175Z,27.43
2022-11-28T06:06:06.049Z,27.00
2022-11-28T06:08:39.441Z,26.93
2022-11-28T06:11:15.071Z,28.27
2022-11-28T06:13:49.443Z,26.27
2022-11-28T06:16:24.660Z,26.40
2022-11-28T06:18:59.673Z,27.67
2022-11-28T06:21:33.811Z,26.73
2022-11-28T06:24:08.885Z,25.50
2022-11-28T06:26:42.558Z,27.33
2022-11-28T06:29:15.819Z,26.40
2022-11-28T06:31:49.218Z,25.00
2022-11-28T06:34:23.147Z,24.83
2022-11-28T06:36:56.953Z,25.10
2022-11-28T06:39:30.551Z,25.97
2022-11-28T06:42:04.366Z,23.17
2022-11-28T06:44:37.799Z,24.13
2022-11-28T06:47:11.496Z,23.50
2022-11-28T06:49:45.203Z,25.27
2022-11-28T06:52:18.784Z,23.73
2022-11-28T06:54:52.352Z,23.67
2022-11-28T06:57:25.217Z,22.07
2022-11-28T06:59:58.781Z,21.87
2022-11-28T07:02:32.240Z,20.97
2022-11-28T07:05:06.340Z,20.97
2022-11-28T07:07:53.059Z,20.00
2022-11-28T07:10:30.392Z,20.53
2022-11-28T07:13:05.687Z,20.37
2022-11-28T07:15:39.577Z,18.90
2022-11-28T07:18:12.876Z,18.70
2022-11-28T07:20:46.817Z,19.23
2022-11-28T07:23:20.670Z,18.90
2022-11-28T07:25:58.910Z,18.07
2022-11-28T07:28:32.850Z,19.50
2022-11-28T07:31:08.450Z,17.07
2022-11-28T07:33:43.195Z,18.93
2022-11-28T07:36:19.156Z,16.77
2022-11-28T07:38:54.058Z,17.73
2022-11-28T07:41:28.876Z,17.00
2022-11-28T07:44:05.854Z,15.90
2022-11-28T07:46:40.930Z,16.80
2022-11-28T07:49:15.087Z,16.90
2022-11-28T07:51:48.681Z,17.60
2022-11-28T07:54:22.871Z,16.13
2022-11-28T07:57:11.612Z,17.03
2022-11-28T07:59:46.302Z,17.97
2022-11-28T08:02:19.764Z,16.30
2022-11-28T08:04:55.340Z,16.03
2022-11-28T08:07:29.122Z,15.67
2022-11-28T08:10:02.642Z,16.77
2022-11-28T08:12:36.446Z,15.97
2022-11-28T08:15:12.283Z,15.33
2022-11-28T08:17:45.816Z,15.70
2022-11-28T08:20:19.941Z,15.53
2022-11-28T08:22:53.769Z,15.97
2022-11-28T08:25:28.021Z,15.15
2022-11-28T08:28:01.456Z,17.53
2022-11-28T08:30:35.018Z,16.70
2022-11-28T08:33:08.357Z,17.07
2022-11-28T08:35:44.382Z,16.50
2022-11-28T08:38:17.831Z,16.57
2022-11-28T08:40:51.055Z,14.83
2022-11-28T08:43:24.845Z,15.43
2022-11-28T08:45:58.392Z,15.70
2022-11-28T08:48:31.818Z,16.83
2022-11-28T08:51:05.603Z,15.70
2022-11-28T08:53:39.912Z,16.03
2022-11-28T08:56:14.344Z,15.93
2022-11-28T08:58:47.593Z,15.80
2022-11-28T09:01:23.764Z,17.73
2022-11-28T09:03:58.465Z,15.00
2022-11-28T09:06:31.878Z,15.60
2022-11-28T09:09:05.458Z,16.63
2022-11-28T09:11:39.290Z,15.70
2022-11-28T09:14:13.206Z,17.43
2022-11-28T09:16:46.715Z,15.40
2022-11-28T09:19:20.119Z,15.63
2022-11-28T09:21:57.667Z,15.23
2022-11-28T09:24:31.972Z,16.60
2022-11-28T09:27:06.209Z,15.50
2022-11-28T09:29:39.581Z,16.20
2022-11-28T09:32:13.281Z,15.57
2022-11-28T09:34:46.628Z,17.33
2022-11-28T09:37:20.379Z,16.10
2022-11-28T09:40:12.768Z,17.13
2022-11-28T09:42:48.054Z,16.77
2022-11-28T09:45:24.774Z,16.80
2022-11-28T09:48:03.085Z,16.47
2022-11-28T09:50:40.311Z,18.23
2022-11-28T09:53:23.150Z,16.67
2022-11-28T09:56:01.246Z,16.70
2022-11-28T09:58:43.059Z,16.30
2022-11-28T10:01:26.277Z,17.60
2022-11-28T10:04:05.240Z,16.13
2022-11-28T10:06:48.205Z,17.27
2022-11-28T10:09:35.526Z,16.63
2022-11-28T10:12:28.450Z,18.30
2022-11-28T10:15:26.835Z,17.40
2022-11-28T10:18:19.604Z,17.03
2022-11-28T10:20:58.285Z,16.20
2022-11-28T10:23:37.040Z,16.90
2022-11-28T10:26:18.021Z,17.47
2022-11-28T10:28:55.073Z,16.93
2022-11-28T10:31:35.027Z,18.13
2022-11-28T10:34:16.175Z,15.70
2022-11-28T10:36:58.899Z,16.97
2022-11-28T10:39:32.837Z,16.70
2022-11-28T10:42:14.433Z,16.40
2022-11-28T10:45:13.630Z,17.73
2022-11-28T10:48:37.133Z,15.83
2022-11-28T10:51:09.183Z,16.43
2022-11-28T10:56:31.305Z,15.70
2022-11-28T10:59:16.169Z,16.33
2022-11-28T11:01:51.451Z,17.17
2022-11-28T11:04:28.705Z,14.60
2022-11-28T11:07:21.798Z,17.27
2022-11-28T11:09:58.244Z,15.37
2022-11-28T11:12:36.148Z,17.60
2022-11-28T11:15:23.641Z,16.40
2022-11-28T11:17:58.077Z,15.97
2022-11-28T11:20:42.100Z,16.27
2022-11-28T11:23:20.481Z,15.67
2022-11-28T11:25:56.363Z,16.27
2022-11-28T11:28:42.277Z,16.50
2022-11-28T11:31:28.445Z,17.83
2022-11-28T11:34:09.221Z,16.30
2022-11-28T11:36:42.814Z,16.80
2022-11-28T11:39:25.815Z,16.07
2022-11-28T11:44:59.658Z,16.07
2022-11-28T11:47:46.570Z,15.33
2022-11-28T11:50:23.897Z,14.17
2022-11-28T11:53:09.046Z,15.67
2022-11-28T11:55:48.948Z,15.07
2022-11-28T11:58:25.717Z,14.57
2022-11-28T12:01:01.262Z,14.03
2022-11-28T12:03:38.496Z,14.17
2022-11-28T12:06:19.246Z,14.27
2022-11-28T12:08:55.881Z,14.80
2022-11-28T12:11:33.007Z,16.07
2022-11-28T12:14:26.051Z,14.53
2022-11-28T12:17:40.433Z,13.60
2022-11-28T12:20:28.749Z,13.43
2022-11-28T12:26:18.026Z,13.73
2022-11-28T12:29:06.317Z,14.37
2022-11-28T12:31:50.128Z,14.77
2022-11-28T12:34:37.484Z,13.23
2022-11-28T12:37:19.799Z,14.07
2022-11-28T12:40:01.636Z,14.13
2022-11-28T12:42:47.046Z,13.85
2022-11-28T12:45:38.529Z,14.27
2022-11-28T12:48:32.862Z,12.97
2022-11-28T12:51:16.241Z,13.63
2022-11-28T12:54:07.417Z,12.83
2022-11-28T12:56:50.824Z,12.87
2022-11-28T12:59:33.698Z,12.67
2022-11-28T13:02:26.888Z,13.17
2022-11-28T13:05:17.148Z,13.70
2022-11-28T13:08:15.118Z,14.20
2022-11-28T13:10:57.524Z,13.83
2022-11-28T13:13:36.652Z,14.37
2022-11-28T13:16:25.108Z,14.97
2022-11-28T13:19:06.591Z,14.47
2022-11-28T13:21:47.782Z,14.83
2022-11-28T13:24:29.062Z,14.60
2022-11-28T13:27:11.347Z,14.60
2022-11-28T13:29:52.524Z,14.00
2022-11-28T13:32:32.562Z,13.77
2022-11-28T13:35:07.274Z,14.57
2022-11-28T13:40:45.375Z,14.67
2022-11-28T13:43:25.945Z,14.90
2022-11-28T13:45:59.998Z,15.47
2022-11-28T13:49:14.601Z,17.40
2022-11-28T13:51:49.535Z,17.37
2022-11-28T13:54:48.962Z,15.67
2022-11-28T13:57:29.088Z,14.90
2022-11-28T14:00:22.616Z,14.63
2022-11-28T14:03:00.390Z,14.50
2022-11-28T14:05:37.397Z,15.20
2022-11-28T14:08:27.273Z,15.27
2022-11-28T14:11:16.349Z,15.43
2022-11-28T14:14:05.691Z,16.40
2022-11-28T14:16:54.706Z,14.87
2022-11-28T14:19:41.770Z,16.30
2022-11-28T14:22:28.885Z,15.13
2022-11-28T14:25:10.882Z,19.63
2022-11-28T14:27:55.126Z,17.65
2022-11-28T14:30:35.470Z,15.57
2022-11-28T14:33:17.508Z,14.87
2022-11-28T14:36:23.583Z,14.73
2022-11-28T14:39:34.140Z,14.73
2022-11-28T14:42:59.787Z,15.30
2022-11-28T14:45:48.167Z,15.57
2022-11-28T14:48:34.069Z,15.60
2022-11-28T14:51:07.955Z,16.63
2022-11-28T14:53:46.150Z,16.50
2022-11-28T14:56:32.109Z,16.43
2022-11-28T14:59:06.434Z,16.90
2022-11-28T15:01:52.721Z,16.77
2022-11-28T15:04:46.881Z,17.83
2022-11-28T15:07:30.635Z,19.23
2022-11-28T15:10:16.355Z,18.87
2022-11-28T15:13:03.392Z,16.83
2022-11-28T15:15:37.194Z,18.13
2022-11-28T15:18:13.846Z,15.93
2022-11-28T15:20:54.110Z,16.97
2022-11-28T15:23:31.083Z,16.63
2022-11-28T15:26:05.187Z,17.00
2022-11-28T15:28:39.334Z,16.90
2022-11-28T15:31:23.449Z,17.67
2022-11-28T15:33:57.376Z,16.53
2022-11-28T15:36:31.843Z,17.13
2022-11-28T15:39:05.468Z,18.80
2022-11-28T15:41:38.804Z,18.87
2022-11-28T15:44:18.695Z,19.20
2022-11-28T15:46:52.580Z,18.03
2022-11-28T15:49:31.823Z,17.73
2022-11-28T15:52:06.647Z,17.53
2022-11-28T15:54:44.090Z,18.80
2022-11-28T15:57:25.333Z,19.73
2022-11-28T15:59:59.051Z,19.97
2022-11-28T16:02:38.975Z,20.07
2022-11-28T16:05:21.144Z,23.37
2022-11-28T16:07:55.340Z,23.67
2022-11-28T16:10:34.204Z,20.97
2022-11-28T16:16:32.735Z,19.07
2022-11-28T16:19:12.553Z,18.80
2022-11-28T16:22:02.165Z,19.97
2022-11-28T16:25:01.677Z,19.97
2022-11-28T16:27:50.852Z,20.57
2022-11-28T16:30:46.797Z,21.80
2022-11-28T16:33:48.480Z,20.37
2022-11-28T16:36:49.367Z,18.20
2022-11-28T17:14:49.229Z,20.77
2022-11-28T17:21:03.634Z,22.10
2022-11-28T17:23:43.998Z,22.67
2022-11-28T17:26:42.566Z,22.23
2022-11-28T17:29:43.503Z,22.47
2022-11-28T17:32:25.565Z,21.67
2022-11-28T17:35:11.456Z,22.05
2022-11-28T17:38:00.135Z,22.47
2022-11-28T17:40:37.311Z,23.87
2022-11-28T17:46:50.348Z,22.20
2022-11-28T17:49:28.242Z,23.07
2022-11-28T17:52:08.207Z,22.67
2022-11-28T17:54:43.722Z,22.77
2022-11-28T17:57:22.822Z,23.50
2022-11-28T18:04:28.224Z,21.73
2022-11-28T18:07:05.089Z,21.63
2022-11-28T18:09:42.672Z,22.80
2022-11-28T18:12:22.269Z,22.53
2022-11-28T18:15:01.464Z,22.93
2022-11-28T18:18:42.930Z,22.40
2022-11-28T18:26:31.766Z,20.83
2022-11-28T18:29:33.999Z,20.63
2022-11-28T18:32:08.283Z,19.80
2022-11-28T18:34:41.650Z,22.03
2022-11-28T18:38:04.925Z,20.03
2022-11-28T18:40:39.832Z,19.30
2022-11-28T18:43:13.176Z,20.93
2022-11-28T18:45:47.770Z,19.83
2022-11-28T18:48:23.169Z,19.87
2022-11-28T18:50:56.736Z,21.43
2022-11-28T18:53:30.217Z,19.57
2022-11-28T18:56:11.441Z,19.60
2022-11-28T18:58:46.491Z,19.97
2022-11-28T19:01:22.610Z,19.53
2022-11-28T19:03:58.471Z,19.97
2022-11-28T19:06:32.517Z,18.80
2022-11-28T19:09:10.673Z,19.57
2022-11-28T19:11:46.588Z,20.43
2022-11-28T19:14:21.715Z,20.73
2022-11-28T19:17:00.164Z,20.37
2022-11-28T19:19:40.285Z,20.35
2022-11-28T19:22:14.013Z,18.87
2022-11-28T19:24:47.309Z,19.25
2022-11-28T19:27:22.809Z,19.10
2022-11-28T19:29:56.140Z,18.93
2022-11-28T19:32:29.540Z,19.80
2022-11-28T19:35:04.851Z,19.27
2022-11-28T19:37:38.335Z,20.77
2022-11-28T19:40:15.992Z,18.80
2022-11-28T19:42:49.409Z,18.47
2022-11-28T19:45:22.767Z,18.80
2022-11-28T19:47:58.600Z,18.80
2022-11-28T19:50:32.242Z,18.37
2022-11-28T19:53:05.646Z,18.63
2022-11-28T19:56:01.777Z,17.87
2022-11-28T19:58:39.823Z,19.03
2022-11-28T20:01:16.999Z,18.03
2022-11-28T20:03:52.636Z,19.23
2022-11-28T20:06:34.104Z,18.20
2022-11-28T20:09:12.740Z,17.70
2022-11-28T20:12:28.420Z,19.17
2022-11-28T20:15:06.124Z,17.10
2022-11-28T20:17:39.394Z,18.67
2022-11-28T20:20:14.081Z,18.17
2022-11-28T20:22:51.467Z,17.30
2022-11-28T20:25:26.313Z,18.13
2022-11-28T20:28:04.564Z,18.67
2022-11-28T20:30:41.336Z,18.00
2022-11-28T20:33:35.627Z,19.17
2022-11-28T20:36:16.570Z,18.37
2022-11-28T20:38:50.866Z,18.23
2022-11-28T20:41:27.452Z,17.00
2022-11-28T20:44:02.076Z,18.50
2022-11-28T20:46:36.762Z,17.97
2022-11-28T20:49:11.749Z,17.00
2022-11-28T20:51:45.143Z,15.87
2022-11-28T20:54:19.055Z,16.50
2022-11-28T20:57:20.342Z,17.30
2022-11-28T20:59:49.348Z,16.83
2022-11-28T21:02:24.435Z,15.60
2022-11-28T21:05:02.259Z,16.50
2022-11-28T21:07:36.470Z,16.07
2022-11-28T21:10:11.259Z,17.73
2022-11-28T21:12:44.814Z,16.50
2022-11-28T21:15:17.965Z,16.60
2022-11-28T21:17:51.184Z,16.90
2022-11-28T21:20:24.100Z,18.87
2022-11-28T21:22:57.048Z,17.33
2022-11-28T21:25:29.988Z,17.00
2022-11-28T21:28:02.946Z,16.97
2022-11-28T21:30:40.445Z,17.50
2022-11-28T21:33:14.856Z,18.47
2022-11-28T21:35:47.798Z,18.20
2022-11-28T21:38:20.968Z,18.53
2022-11-28T21:40:59.645Z,16.93
2022-11-28T21:43:33.249Z,18.93
2022-11-28T21:46:08.554Z,16.97
2022-11-28T21:48:42.619Z,16.20
2022-11-28T21:51:22.130Z,15.07
2022-11-28T21:53:57.811Z,16.37
2022-11-28T21:56:30.995Z,15.27
2022-11-28T21:59:05.036Z,16.23
2022-11-28T22:01:38.453Z,16.33
2022-11-28T22:04:14.072Z,16.60
2022-11-28T22:06:46.988Z,15.77
2022-11-28T22:09:19.965Z,16.37
2022-11-28T22:11:53.319Z,16.57
2022-11-28T22:14:26.644Z,16.37
2022-11-28T22:17:00.891Z,16.27
2022-11-28T22:19:36.460Z,17.07
2022-11-28T22:22:09.610Z,15.63
2022-11-28T22:24:47.464Z,16.13
2022-11-28T22:27:21.737Z,16.87
2022-11-28T22:29:55.258Z,15.83
2022-11-28T22:32:28.106Z,15.37
2022-11-28T22:35:02.778Z,16.10
2022-11-28T22:37:35.828Z,15.43
2022-11-28T22:40:11.473Z,14.77
2022-11-28T22:42:44.508Z,15.53
2022-11-28T22:45:17.701Z,15.17
2022-11-28T22:47:50.477Z,15.90
2022-11-28T22:50:23.613Z,15.27
2022-11-28T22:52:57.449Z,14.87
2022-11-28T22:55:30.252Z,14.70
2022-11-28T22:58:03.958Z,15.60
2022-11-28T23:00:37.276Z,15.73
2022-11-28T23:03:10.443Z,14.33
2022-11-28T23:05:48.974Z,14.97
2022-11-28T23:08:24.271Z,14.10
2022-11-28T23:10:57.316Z,14.43
2022-11-28T23:13:32.812Z,15.50
2022-11-28T23:16:41.297Z,14.57
2022-11-28T23:19:16.865Z,14.57
2022-11-28T23:21:52.979Z,14.60
2022-11-28T23:24:26.668Z,14.47
2022-11-28T23:27:00.044Z,15.00
2022-11-28T23:29:33.503Z,13.43
2022-11-28T23:32:06.854Z,13.17
2022-11-28T23:34:40.440Z,14.47
2022-11-28T23:37:13.716Z,13.97
2022-11-28T23:39:46.755Z,14.70
2022-11-28T23:42:19.996Z,13.73
2022-11-28T23:44:53.035Z,12.67
2022-11-28T23:47:25.991Z,13.63
2022-11-28T23:50:01.159Z,14.30
2022-11-28T23:52:34.135Z,14.23
2022-11-28T23:55:08.294Z,14.67
2022-11-28T23:57:41.146Z,13.90
